createdAt,value
2019-05-14T00:00:21.666Z,95790.67
2019-05-14T00:02:48.109Z,95787.34
2019-05-14T00:05:14.642Z,95784.37
2019-05-14T00:07:41.473Z,95785.78
2019-05-14T00:10:08.506Z,95783.91
2019-05-14T00:12:35.070Z,95778.45
2019-05-14T00:15:02.401Z,95779.83
2019-05-14T00:17:29.012Z,95777.11
2019-05-14T00:20:06.509Z,95771.03
2019-05-14T00:22:23.992Z,95770.31
2019-05-14T00:24:52.022Z,95776.33
2019-05-14T00:27:18.860Z,95769.64
2019-05-14T00:29:45.394Z,95765.28
2019-05-14T00:32:11.908Z,95758.55
2019-05-14T00:34:38.438Z,95760.77
2019-05-14T00:37:04.952Z,95751.08
2019-05-14T00:39:32.080Z,95753.63
2019-05-14T00:41:58.809Z,95750.59
2019-05-14T00:44:25.344Z,95748.84
2019-05-14T00:46:51.872Z,95743.76
2019-05-14T00:49:18.399Z,95743.69
2019-05-14T00:51:44.916Z,95736.69
2019-05-14T00:54:12.083Z,95740.03
2019-05-14T00:56:41.440Z,95735.52
2019-05-14T00:59:07.526Z,95735.45
2019-05-14T01:01:34.159Z,95736.18
2019-05-14T01:04:01.231Z,95734.17
2019-05-14T01:06:27.915Z,95738.98
2019-05-14T01:08:54.430Z,95745.88
2019-05-14T01:11:22.110Z,95748.19
2019-05-14T01:13:48.875Z,95746.08
2019-05-14T01:16:15.417Z,95745.48
2019-05-14T01:18:42.003Z,95740.55
2019-05-14T01:21:08.537Z,95739.62
2019-05-14T01:23:35.054Z,95731.11
2019-05-14T01:26:02.331Z,95730.61
2019-05-14T01:28:29.525Z,95729.48
2019-05-14T01:30:56.124Z,95719.28
2019-05-14T01:33:22.650Z,95723.47
2019-05-14T01:35:51.222Z,95716.84
2019-05-14T01:38:17.598Z,95710.87
2019-05-14T01:40:44.574Z,95711.52
2019-05-14T01:43:11.592Z,95709.93
2019-05-14T01:45:38.203Z,95710.87
2019-05-14T01:48:04.718Z,95711.66
2019-05-14T01:50:32.243Z,95701.13
2019-05-14T01:53:01.052Z,95698.88
2019-05-14T01:55:27.336Z,95692.57
2019-05-14T01:57:53.884Z,95692.96
2019-05-14T02:00:22.027Z,95697.50
2019-05-14T02:02:48.844Z,95694.58
2019-05-14T02:05:15.362Z,95703.63
2019-05-14T02:07:42.179Z,95695.49
2019-05-14T02:10:11.488Z,95687.89
2019-05-14T02:12:37.910Z,95691.86
2019-05-14T02:15:05.984Z,95690.66
2019-05-14T02:17:32.525Z,95685.23
2019-05-14T02:19:59.061Z,95686.12
2019-05-14T02:22:25.591Z,95687.03
2019-05-14T02:24:52.201Z,95685.34
2019-05-14T02:27:18.753Z,95681.02
2019-05-14T02:29:45.265Z,95678.57
2019-05-14T02:32:11.801Z,95678.57
2019-05-14T02:34:39.904Z,95673.88
2019-05-14T02:37:09.243Z,95668.88
2019-05-14T02:39:35.262Z,95673.84
2019-05-14T02:42:01.907Z,95673.69
2019-05-14T02:44:29.740Z,95667.84
2019-05-14T02:46:59.215Z,95667.06
2019-05-14T02:49:25.189Z,95671.75
2019-05-14T02:51:51.725Z,95668.66
2019-05-14T02:54:20.342Z,95665.74
2019-05-14T02:56:49.525Z,95664.19
2019-05-14T02:59:15.200Z,95662.26
2019-05-14T03:01:41.720Z,95666.57
2019-05-14T03:04:09.108Z,95657.41
2019-05-14T03:06:35.876Z,95657.97
2019-05-14T03:09:04.512Z,95660.55
2019-05-14T03:11:31.237Z,95656.84
2019-05-14T03:13:59.909Z,95662.75
2019-05-14T03:16:32.515Z,95664.69
2019-05-14T03:18:54.685Z,95670.35
2019-05-14T03:21:21.203Z,95667.97
2019-05-14T03:23:49.636Z,95661.89
2019-05-14T03:26:19.624Z,95663.00
2019-05-14T03:28:44.804Z,95671.55
2019-05-14T03:31:12.651Z,95671.78
2019-05-14T03:33:43.843Z,95676.33
2019-05-14T03:36:16.542Z,95667.28
2019-05-14T03:38:39.476Z,95666.63
2019-05-14T03:41:05.253Z,95680.98
2019-05-14T03:43:31.889Z,95676.03
2019-05-14T03:45:59.385Z,95674.63
2019-05-14T03:48:29.332Z,95663.20
2019-05-14T03:50:54.772Z,95662.69
2019-05-14T03:53:21.369Z,95669.88
2019-05-14T03:55:50.425Z,95669.64
2019-05-14T03:58:20.646Z,95667.00
2019-05-14T04:00:50.102Z,95657.63
2019-05-14T04:03:19.811Z,95653.52
2019-05-14T04:05:49.331Z,95654.46
2019-05-14T04:08:17.091Z,95653.07
2019-05-14T04:10:50.584Z,95654.84
2019-05-14T04:13:14.283Z,95654.50
2019-05-14T04:15:44.219Z,95646.65
2019-05-14T04:18:12.243Z,95642.45
2019-05-14T04:20:41.123Z,95645.51
2019-05-14T04:23:09.837Z,95643.23
2019-05-14T04:25:39.023Z,95644.53
2019-05-14T04:28:10.712Z,95636.33
2019-05-14T04:30:40.038Z,95640.56
2019-05-14T04:33:10.627Z,95639.16
2019-05-14T04:35:40.104Z,95640.74
2019-05-14T04:38:05.632Z,95640.82
2019-05-14T04:40:32.264Z,95643.23
2019-05-14T04:42:59.228Z,95640.33
2019-05-14T04:45:26.080Z,95641.96
2019-05-14T04:47:52.712Z,95642.59
2019-05-14T04:50:20.083Z,95646.42
2019-05-14T04:52:49.379Z,95646.38
2019-05-14T04:55:15.684Z,95643.39
2019-05-14T04:57:42.206Z,95641.61
2019-05-14T05:00:12.088Z,95644.14
2019-05-14T05:02:39.720Z,95637.17
2019-05-14T05:05:08.855Z,95633.55
2019-05-14T05:07:34.618Z,95636.27
2019-05-14T05:10:03.090Z,95627.34
2019-05-14T05:12:29.855Z,95632.27
2019-05-14T05:14:58.645Z,95628.57
2019-05-14T05:17:40.232Z,95632.36
2019-05-14T05:19:53.213Z,95637.39
2019-05-14T05:22:19.983Z,95627.28
2019-05-14T05:24:48.412Z,95629.56
2019-05-14T05:27:15.055Z,95621.84
2019-05-14T05:29:41.571Z,95624.98
2019-05-14T05:32:08.783Z,95626.87
2019-05-14T05:34:35.440Z,95629.40
2019-05-14T05:37:01.971Z,95628.12
2019-05-14T05:39:28.509Z,95628.67
2019-05-14T05:41:55.032Z,95631.95
2019-05-14T05:44:21.545Z,95634.75
2019-05-14T05:46:49.393Z,95635.89
2019-05-14T05:49:18.519Z,95636.18
2019-05-14T05:51:44.534Z,95633.66
2019-05-14T05:54:11.056Z,95627.78
2019-05-14T05:56:38.798Z,95634.52
2019-05-14T05:59:05.438Z,95629.88
2019-05-14T06:01:44.968Z,95624.53
2019-05-14T06:04:00.446Z,95628.75
2019-05-14T06:06:28.379Z,95620.09
2019-05-14T06:08:54.979Z,95612.01
2019-05-14T06:11:21.534Z,95615.47
2019-05-14T06:13:48.638Z,95611.78
2019-05-14T06:16:15.384Z,95610.36
2019-05-14T06:18:41.932Z,95608.17
2019-05-14T06:21:09.215Z,95602.89
2019-05-14T06:23:38.351Z,95607.53
2019-05-14T06:26:04.474Z,95601.48
2019-05-14T06:28:33.486Z,95597.41
2019-05-14T06:30:59.510Z,95595.30
2019-05-14T06:33:28.707Z,95596.60
2019-05-14T06:35:54.836Z,95599.29
2019-05-14T06:38:21.499Z,95600.67
2019-05-14T06:40:48.985Z,95602.97
2019-05-14T06:43:15.741Z,95595.16
2019-05-14T06:45:42.309Z,95602.77
2019-05-14T06:48:08.963Z,95606.03
2019-05-14T06:50:35.586Z,95606.11
2019-05-14T06:53:02.153Z,95609.71
2019-05-14T06:55:28.675Z,95609.11
2019-05-14T06:57:55.224Z,95612.49
2019-05-14T07:00:21.978Z,95617.05
2019-05-14T07:02:49.105Z,95608.05
2019-05-14T07:05:16.033Z,95612.38
2019-05-14T07:07:42.582Z,95608.56
2019-05-14T07:10:10.387Z,95608.58
2019-05-14T07:12:38.775Z,95606.38
2019-05-14T07:15:06.322Z,95599.52
2019-05-14T07:17:33.049Z,95600.96
2019-05-14T07:19:59.589Z,95596.28
2019-05-14T07:22:28.154Z,95598.55
2019-05-14T07:24:54.615Z,95595.75
2019-05-14T07:27:28.957Z,95597.23
2019-05-14T07:29:55.489Z,95596.09
2019-05-14T07:32:29.606Z,95598.98
2019-05-14T07:34:56.352Z,95596.70
2019-05-14T07:37:24.195Z,95591.42
2019-05-14T07:39:51.975Z,95597.65
2019-05-14T07:42:18.558Z,95592.19
2019-05-14T07:44:45.144Z,95586.83
2019-05-14T07:47:11.757Z,95579.20
2019-05-14T07:49:38.664Z,95584.47
2019-05-14T07:52:05.422Z,95587.41
2019-05-14T07:54:32.001Z,95581.62
2019-05-14T07:56:59.044Z,95575.02
2019-05-14T07:59:25.799Z,95571.70
2019-05-14T08:01:52.339Z,95585.97
2019-05-14T08:04:20.023Z,95578.21
2019-05-14T08:06:48.732Z,95566.89
2019-05-14T08:09:15.206Z,95565.94
2019-05-14T08:11:41.769Z,95569.89
2019-05-14T08:14:08.997Z,95571.88
2019-05-14T08:16:37.950Z,95566.55
2019-05-14T08:19:05.021Z,95563.69
2019-05-14T08:21:32.712Z,95568.88
2019-05-14T08:23:59.458Z,95561.41
2019-05-14T08:26:26.189Z,95566.77
2019-05-14T08:28:52.863Z,95569.55
2019-05-14T08:31:19.417Z,95566.97
2019-05-14T08:33:48.535Z,95560.86
2019-05-14T08:36:14.598Z,95563.91
2019-05-14T08:38:45.372Z,95561.11
2019-05-14T08:41:09.601Z,95554.77
2019-05-14T08:43:36.191Z,95567.69
2019-05-14T08:46:03.805Z,95565.21
2019-05-14T08:48:30.383Z,95560.19
2019-05-14T08:50:58.713Z,95565.59
2019-05-14T08:53:25.432Z,95558.22
2019-05-14T08:55:52.127Z,95554.10
2019-05-14T08:58:20.178Z,95561.38
2019-05-14T09:00:48.278Z,95561.22
2019-05-14T09:03:15.140Z,95560.86
2019-05-14T09:05:41.702Z,95556.49
2019-05-14T09:08:08.963Z,95553.22
2019-05-14T09:10:35.558Z,95559.96
2019-05-14T09:13:02.890Z,95556.11
2019-05-14T09:15:29.614Z,95539.27
2019-05-14T09:17:58.639Z,95534.96
2019-05-14T09:20:24.621Z,95531.55
2019-05-14T09:22:51.193Z,95537.41
2019-05-14T09:25:18.941Z,95540.18
2019-05-14T09:27:49.078Z,95539.16
2019-05-14T09:30:15.267Z,95538.86
2019-05-14T09:32:41.832Z,95545.27
2019-05-14T09:35:09.794Z,95542.72
2019-05-14T09:37:39.302Z,95531.11
2019-05-14T09:40:08.651Z,95526.49
2019-05-14T09:42:34.763Z,95524.54
2019-05-14T09:45:01.338Z,95526.68
2019-05-14T09:47:28.320Z,95521.34
2019-05-14T09:49:54.924Z,95521.16
2019-05-14T09:52:21.498Z,95517.83
2019-05-14T09:54:49.617Z,95517.18
2019-05-14T09:57:18.735Z,95531.17
2019-05-14T09:59:44.910Z,95529.20
2019-05-14T10:02:11.491Z,95536.92
2019-05-14T10:04:39.100Z,95534.89
2019-05-14T10:07:08.515Z,95528.59
2019-05-14T10:09:34.485Z,95534.86
2019-05-14T10:12:01.077Z,95532.52
2019-05-14T10:14:29.835Z,95531.95
2019-05-14T10:16:58.264Z,95529.06
2019-05-14T10:19:24.609Z,95526.74
2019-05-14T10:21:51.166Z,95515.75
2019-05-14T10:24:18.639Z,95511.48
2019-05-14T10:26:48.658Z,95518.17
2019-05-14T10:29:13.974Z,95514.40
2019-05-14T10:31:40.519Z,95509.41
2019-05-14T10:34:08.367Z,95515.28
2019-05-14T10:36:34.990Z,95513.34
2019-05-14T10:39:01.533Z,95516.38
2019-05-14T10:41:29.087Z,95513.48
2019-05-14T10:43:58.610Z,95511.51
2019-05-14T10:46:24.303Z,95508.33
2019-05-14T10:48:50.840Z,95509.06
2019-05-14T10:51:18.119Z,95503.66
2019-05-14T10:53:44.874Z,95512.80
2019-05-14T10:56:11.382Z,95512.75
2019-05-14T10:58:37.893Z,95504.66
2019-05-14T11:01:04.418Z,95499.62
2019-05-14T11:03:30.958Z,95492.95
2019-05-14T11:05:58.843Z,95495.87
2019-05-14T11:08:25.505Z,95491.95
2019-05-14T11:10:52.138Z,95493.56
2019-05-14T11:13:19.075Z,95496.74
2019-05-14T11:15:48.455Z,95491.48
2019-05-14T11:18:14.452Z,95487.98
2019-05-14T11:20:42.189Z,95482.39
2019-05-14T11:23:09.103Z,95477.30
2019-05-14T11:25:38.160Z,95476.28
2019-05-14T11:28:04.069Z,95475.82
2019-05-14T11:30:30.599Z,95479.32
2019-05-14T11:32:58.428Z,95473.48
2019-05-14T11:35:25.222Z,95467.78
2019-05-14T11:37:51.751Z,95468.28
2019-05-14T11:40:18.916Z,95457.52
2019-05-14T11:42:45.694Z,95454.08
2019-05-14T11:45:12.924Z,95465.08
2019-05-14T11:47:39.453Z,95461.27
2019-05-14T11:50:09.466Z,95466.95
2019-05-14T11:52:35.421Z,95460.05
2019-05-14T11:55:03.839Z,95458.72
2019-05-14T11:57:30.377Z,95462.88
2019-05-14T11:59:58.134Z,95463.52
2019-05-14T12:02:24.740Z,95453.80
2019-05-14T12:04:51.273Z,95451.78
2019-05-14T12:07:18.617Z,95451.45
2019-05-14T12:09:45.337Z,95455.28
2019-05-14T12:12:12.805Z,95450.25
2019-05-14T12:14:39.429Z,95449.07
2019-05-14T12:17:09.142Z,95453.91
2019-05-14T12:19:34.483Z,95447.20
2019-05-14T12:22:07.486Z,95454.52
2019-05-14T12:24:29.559Z,95448.93
2019-05-14T12:26:58.499Z,95449.83
2019-05-14T12:29:24.513Z,95451.38
2019-05-14T12:31:51.037Z,95448.86
2019-05-14T12:34:18.669Z,95439.49
2019-05-14T12:36:45.385Z,95438.70
2019-05-14T12:39:11.900Z,95446.13
2019-05-14T12:41:38.424Z,95449.03
2019-05-14T12:44:05.152Z,95443.89
2019-05-14T12:46:31.709Z,95437.28
2019-05-14T12:48:59.032Z,95429.88
2019-05-14T12:51:25.870Z,95425.05
2019-05-14T12:53:52.391Z,95427.58
2019-05-14T12:56:19.125Z,95421.89
2019-05-14T12:58:46.228Z,95421.91
2019-05-14T13:01:14.399Z,95431.38
2019-05-14T13:03:40.927Z,95433.81
2019-05-14T13:06:10.111Z,95417.39
2019-05-14T13:08:38.389Z,95419.71
2019-05-14T13:11:04.526Z,95427.97
2019-05-14T13:13:31.067Z,95424.12
2019-05-14T13:15:57.664Z,95432.48
2019-05-14T13:18:24.196Z,95421.83
2019-05-14T13:20:50.725Z,95425.76
2019-05-14T13:23:18.418Z,95410.75
2019-05-14T13:25:45.236Z,95407.43
2019-05-14T13:28:11.792Z,95400.41
2019-05-14T13:30:38.337Z,95399.27
2019-05-14T13:33:04.864Z,95390.48
2019-05-14T13:35:31.523Z,95386.26
2019-05-14T13:37:58.643Z,95394.84
2019-05-14T13:40:25.363Z,95394.30
2019-05-14T13:42:51.913Z,95399.06
2019-05-14T13:45:19.150Z,95392.10
2019-05-14T13:47:48.593Z,95392.11
2019-05-14T13:50:14.782Z,95385.88
2019-05-14T13:52:58.242Z,95388.45
2019-05-14T13:55:10.148Z,95385.99
2019-05-14T13:57:39.423Z,95366.87
2019-05-14T14:00:11.554Z,95371.48
2019-05-14T14:02:34.440Z,95377.80
2019-05-14T14:05:00.987Z,95372.55
2019-05-14T14:07:27.494Z,95377.16
2019-05-14T14:09:54.005Z,95369.97
2019-05-14T14:12:20.537Z,95370.52
2019-05-14T14:14:49.284Z,95364.13
2019-05-14T14:17:18.317Z,95358.35
2019-05-14T14:19:44.129Z,95361.23
2019-05-14T14:22:10.668Z,95353.76
2019-05-14T14:24:38.608Z,95366.41
2019-05-14T14:27:05.506Z,95365.59
2019-05-14T14:29:32.061Z,95364.48
2019-05-14T14:31:59.007Z,95365.83
2019-05-14T14:34:25.619Z,95361.45
2019-05-14T14:36:55.092Z,95363.06
2019-05-14T14:39:20.558Z,95356.69
2019-05-14T14:41:48.911Z,95352.44
2019-05-14T14:44:15.755Z,95346.88
2019-05-14T14:46:51.135Z,95346.57
2019-05-14T14:49:19.192Z,95338.50
2019-05-14T14:51:46.084Z,95346.39
2019-05-14T14:54:16.140Z,95349.06
2019-05-14T14:56:41.033Z,95347.97
2019-05-14T14:59:09.504Z,95351.49
2019-05-14T15:01:39.882Z,95351.09
2019-05-14T15:04:04.510Z,95351.10
2019-05-14T15:06:31.035Z,95344.05
2019-05-14T15:08:58.882Z,95344.25
2019-05-14T15:11:29.186Z,95344.45
2019-05-14T15:13:54.027Z,95341.34
2019-05-14T15:16:20.556Z,95332.38
2019-05-14T15:18:49.717Z,95329.98
2019-05-14T15:21:15.512Z,95329.23
2019-05-14T15:23:45.104Z,95331.58
2019-05-14T15:26:11.943Z,95321.78
2019-05-14T15:28:38.921Z,95322.41
2019-05-14T15:31:05.426Z,95327.05
2019-05-14T15:33:33.861Z,95323.88
2019-05-14T15:36:00.385Z,95328.55
2019-05-14T15:38:30.338Z,95327.96
2019-05-14T15:40:55.342Z,95326.13
2019-05-14T15:43:23.779Z,95324.44
2019-05-14T15:45:50.307Z,95323.48
2019-05-14T15:48:19.670Z,95324.34
2019-05-14T15:50:45.289Z,95319.15
2019-05-14T15:53:11.816Z,95320.13
2019-05-14T15:55:38.443Z,95309.38
2019-05-14T15:58:04.977Z,95312.30
2019-05-14T16:00:31.517Z,95304.06
2019-05-14T16:03:00.245Z,95299.58
2019-05-14T16:05:28.509Z,95294.91
2019-05-14T16:07:54.911Z,95292.13
2019-05-14T16:10:21.912Z,95293.08
2019-05-14T16:12:49.679Z,95295.19
2019-05-14T16:15:18.819Z,95300.56
2019-05-14T16:17:50.127Z,95288.23
2019-05-14T16:20:14.054Z,95292.89
2019-05-14T16:22:40.683Z,95289.48
2019-05-14T16:25:08.918Z,95292.02
2019-05-14T16:27:35.698Z,95290.92
2019-05-14T16:30:06.443Z,95283.13
2019-05-14T16:32:34.883Z,95277.42
2019-05-14T16:35:02.720Z,95288.03
2019-05-14T16:37:29.250Z,95280.45
2019-05-14T16:39:55.791Z,95278.92
2019-05-14T16:42:22.331Z,95285.75
2019-05-14T16:44:48.871Z,95283.13
2019-05-14T16:47:15.401Z,95288.27
2019-05-14T16:49:41.954Z,95293.65
2019-05-14T16:52:09.296Z,95285.73
2019-05-14T16:54:36.015Z,95300.56
2019-05-14T16:57:02.565Z,95288.55
2019-05-14T16:59:29.693Z,95290.41
2019-05-14T17:01:58.487Z,95300.45
2019-05-14T17:04:24.743Z,95292.45
2019-05-14T17:06:51.270Z,95283.91
2019-05-14T17:09:18.745Z,95283.39
2019-05-14T17:11:45.313Z,95293.28
2019-05-14T17:14:11.868Z,95293.52
2019-05-14T17:16:38.413Z,95292.24
2019-05-14T17:19:04.923Z,95295.73
2019-05-14T17:21:31.467Z,95298.23
2019-05-14T17:23:58.355Z,95295.89
2019-05-14T17:26:24.894Z,95296.84
2019-05-14T17:28:51.431Z,95286.19
2019-05-14T17:31:19.011Z,95290.69
2019-05-14T17:33:45.849Z,95287.14
2019-05-14T17:36:12.483Z,95286.41
2019-05-14T17:38:39.390Z,95286.47
2019-05-14T17:41:09.169Z,95285.17
2019-05-14T17:43:34.568Z,95278.86
2019-05-14T17:46:01.676Z,95284.02
2019-05-14T17:48:28.565Z,95282.53
2019-05-14T17:50:55.135Z,95282.56
2019-05-14T17:53:21.689Z,95285.25
2019-05-14T17:55:50.875Z,95280.73
2019-05-14T17:58:18.823Z,95281.26
2019-05-14T18:00:45.141Z,95278.58
2019-05-14T18:03:11.667Z,95274.77
2019-05-14T18:05:38.233Z,95275.77
2019-05-14T18:08:04.759Z,95274.92
2019-05-14T18:10:31.589Z,95275.77
2019-05-14T18:12:59.826Z,95270.95
2019-05-14T18:15:29.057Z,95270.59
2019-05-14T18:17:55.843Z,95268.25
2019-05-14T18:20:22.398Z,95266.27
2019-05-14T18:22:48.924Z,95264.44
2019-05-14T18:25:15.450Z,95266.52
2019-05-14T18:27:42.693Z,95269.51
2019-05-14T18:30:09.732Z,95275.95
2019-05-14T18:32:36.380Z,95276.45
2019-05-14T18:35:03.950Z,95284.94
2019-05-14T18:37:30.484Z,95281.08
2019-05-14T18:39:58.623Z,95277.38
2019-05-14T18:42:25.364Z,95279.53
2019-05-14T18:44:51.890Z,95282.00
2019-05-14T18:47:20.071Z,95284.62
2019-05-14T18:49:48.643Z,95284.80
2019-05-14T18:52:18.504Z,95278.97
2019-05-14T18:54:44.437Z,95282.91
2019-05-14T18:57:12.161Z,95287.26
2019-05-14T18:59:40.792Z,95283.59
2019-05-14T19:02:08.657Z,95281.56
2019-05-14T19:04:35.313Z,95275.80
2019-05-14T19:07:01.845Z,95277.94
2019-05-14T19:09:29.189Z,95280.17
2019-05-14T19:11:55.918Z,95281.52
2019-05-14T19:14:22.557Z,95280.36
2019-05-14T19:16:49.196Z,95276.63
2019-05-14T19:19:15.747Z,95272.45
2019-05-14T19:21:42.328Z,95281.95
2019-05-14T19:24:09.127Z,95277.37
2019-05-14T19:26:37.742Z,95280.58
2019-05-14T19:29:04.736Z,95283.01
2019-05-14T19:31:38.679Z,95285.59
2019-05-14T19:34:08.472Z,95278.84
2019-05-14T19:36:35.459Z,95281.41
2019-05-14T19:39:04.395Z,95284.50
2019-05-14T19:41:30.937Z,95279.28
2019-05-14T19:43:59.452Z,95280.09
2019-05-14T19:46:25.901Z,95284.80
2019-05-14T19:48:52.432Z,95286.39
2019-05-14T19:51:18.981Z,95282.11
2019-05-14T19:53:45.519Z,95283.33
2019-05-14T19:56:12.037Z,95288.38
2019-05-14T19:58:38.658Z,95279.78
2019-05-14T20:01:05.564Z,95283.64
2019-05-14T20:03:32.099Z,95286.42
2019-05-14T20:05:58.655Z,95291.04
2019-05-14T20:08:25.183Z,95296.63
2019-05-14T20:10:51.722Z,95292.95
2019-05-14T20:13:19.345Z,95287.52
2019-05-14T20:15:48.592Z,95290.98
2019-05-14T20:18:14.880Z,95291.66
2019-05-14T20:20:41.405Z,95285.32
2019-05-14T20:23:07.953Z,95284.19
2019-05-14T20:25:34.471Z,95293.53
2019-05-14T20:28:01.007Z,95282.36
2019-05-14T20:30:29.472Z,95278.03
2019-05-14T20:32:56.067Z,95283.03
2019-05-14T20:35:31.533Z,95280.39
2019-05-14T20:37:51.070Z,95287.62
2019-05-14T20:40:17.699Z,95283.64
2019-05-14T20:42:44.391Z,95281.81
2019-05-14T20:45:11.108Z,95278.94
2019-05-14T20:47:39.108Z,95271.91
2019-05-14T20:50:08.721Z,95280.68
2019-05-14T20:52:34.888Z,95281.23
2019-05-14T20:55:01.440Z,95279.55
2019-05-14T20:57:32.957Z,95283.17
2019-05-14T20:59:58.744Z,95281.52
2019-05-14T21:02:24.953Z,95282.84
2019-05-14T21:04:54.708Z,95279.55
2019-05-14T21:07:19.941Z,95278.01
2019-05-14T21:09:49.014Z,95283.15
2019-05-14T21:12:14.920Z,95280.58
2019-05-14T21:14:41.594Z,95275.37
2019-05-14T21:17:08.521Z,95275.65
2019-05-14T21:19:35.162Z,95279.02
2019-05-14T21:22:01.702Z,95277.73
2019-05-14T21:24:29.449Z,95283.20
2019-05-14T21:26:58.261Z,95291.59
2019-05-14T21:29:24.682Z,95282.61
2019-05-14T21:31:51.262Z,95282.25
2019-05-14T21:34:17.790Z,95281.06
2019-05-14T21:36:47.348Z,95274.53
2019-05-14T21:39:13.877Z,95280.83
2019-05-14T21:41:40.455Z,95274.17
2019-05-14T21:44:08.665Z,95274.11
2019-05-14T21:46:35.501Z,95267.94
2019-05-14T21:49:02.036Z,95270.99
2019-05-14T21:51:28.599Z,95263.23
2019-05-14T21:53:55.198Z,95267.64
2019-05-14T21:56:22.008Z,95261.88
2019-05-14T21:58:48.660Z,95264.89
2019-05-14T22:01:15.522Z,95268.30
2019-05-14T22:03:42.071Z,95260.81
2019-05-14T22:06:08.914Z,95262.17
2019-05-14T22:08:35.629Z,95262.27
2019-05-14T22:11:02.304Z,95260.81
2019-05-14T22:13:28.928Z,95262.20
2019-05-14T22:15:55.578Z,95265.93
2019-05-14T22:18:22.115Z,95258.91
2019-05-14T22:20:48.796Z,95262.58
2019-05-14T22:23:15.411Z,95263.20
2019-05-14T22:25:42.063Z,95249.22
2019-05-14T22:28:14.916Z,95250.55
2019-05-14T22:30:38.883Z,95249.39
2019-05-14T22:33:08.194Z,95252.13
2019-05-14T22:35:34.000Z,95244.29
2019-05-14T22:38:00.523Z,95237.96
2019-05-14T22:40:28.995Z,95243.23
2019-05-14T22:42:59.984Z,95234.50
2019-05-14T22:45:24.003Z,95236.12
2019-05-14T22:47:50.645Z,95233.22
2019-05-14T22:50:18.390Z,95226.89
2019-05-14T22:52:45.007Z,95229.87
2019-05-14T22:55:11.972Z,95219.20
2019-05-14T22:57:39.520Z,95222.59
2019-05-14T23:00:08.117Z,95222.84
2019-05-14T23:02:34.664Z,95224.78
2019-05-14T23:05:01.408Z,95226.31
2019-05-14T23:07:27.932Z,95224.29
2019-05-14T23:09:54.621Z,95222.14
2019-05-14T23:12:21.155Z,95227.48
2019-05-14T23:14:48.675Z,95220.98
2019-05-14T23:17:15.334Z,95224.08
2019-05-14T23:19:41.852Z,95227.64
2019-05-14T23:22:08.381Z,95226.36
2019-05-14T23:24:34.914Z,95227.52
2019-05-14T23:27:01.450Z,95219.98
2019-05-14T23:29:28.793Z,95223.95
2019-05-14T23:31:58.648Z,95224.73
2019-05-14T23:34:24.872Z,95214.39
2019-05-14T23:36:51.400Z,95215.89
2019-05-14T23:39:18.742Z,95210.13
2019-05-14T23:41:45.538Z,95210.50
2019-05-14T23:44:12.091Z,95206.27
2019-05-14T23:46:38.631Z,95205.70
2019-05-14T23:49:05.234Z,95199.78
2019-05-14T23:51:31.768Z,95203.83
2019-05-14T23:53:58.339Z,95200.02
2019-05-14T23:56:24.892Z,95195.89
2019-05-14T23:58:57.657Z,95199.58
